createdAt,value
2023-04-11T00:02:19.884Z,8.30
2023-04-11T00:04:47.941Z,8.43
2023-04-11T00:07:17.021Z,8.87
2023-04-11T00:09:44.666Z,8.00
2023-04-11T00:12:12.313Z,7.70
2023-04-11T00:14:45.361Z,7.90
2023-04-11T00:17:13.402Z,9.67
2023-04-11T00:19:43.319Z,8.30
2023-04-11T00:22:11.405Z,8.90
2023-04-11T00:24:40.486Z,8.23
2023-04-11T00:27:08.134Z,7.87
2023-04-11T00:29:37.001Z,8.73
2023-04-11T00:32:05.103Z,8.30
2023-04-11T00:34:34.186Z,8.43
2023-04-11T00:37:02.635Z,8.43
2023-04-11T00:39:34.092Z,8.63
2023-04-11T00:42:07.782Z,8.47
2023-04-11T00:44:36.173Z,9.90
2023-04-11T00:47:06.253Z,9.40
2023-04-11T00:49:34.171Z,8.20
2023-04-11T00:52:01.845Z,8.50
2023-04-11T00:54:30.456Z,9.30
2023-04-11T00:57:01.027Z,8.47
2023-04-11T00:59:31.056Z,9.80
2023-04-11T01:01:59.852Z,9.03
2023-04-11T01:04:29.373Z,9.73
2023-04-11T01:07:01.861Z,9.90
2023-04-11T01:09:29.916Z,9.73
2023-04-11T01:11:58.088Z,11.10
2023-04-11T01:14:27.057Z,10.50
2023-04-11T01:16:57.354Z,10.37
2023-04-11T01:19:26.950Z,11.33
2023-04-11T01:21:57.022Z,11.13
2023-04-11T01:24:26.126Z,11.10
2023-04-11T01:26:53.774Z,10.77
2023-04-11T01:29:21.896Z,10.00
2023-04-11T01:31:51.171Z,11.30
2023-04-11T01:34:20.597Z,11.33
2023-04-11T01:36:48.806Z,20.07
2023-04-11T01:39:16.527Z,11.20
2023-04-11T01:41:47.631Z,11.40
2023-04-11T01:44:15.423Z,11.10
2023-04-11T01:46:44.290Z,11.20
2023-04-11T01:49:16.236Z,12.90
2023-04-11T01:51:43.941Z,11.03
2023-04-11T01:54:11.539Z,11.57
2023-04-11T01:56:39.340Z,12.13
2023-04-11T01:59:08.273Z,12.10
2023-04-11T02:01:36.164Z,13.70
2023-04-11T02:04:04.140Z,11.70
2023-04-11T02:06:31.923Z,11.83
2023-04-11T02:08:59.504Z,12.17
2023-04-11T02:11:27.139Z,11.80
2023-04-11T02:13:54.757Z,12.60
2023-04-11T02:16:25.901Z,13.93
2023-04-11T02:18:54.262Z,13.90
2023-04-11T02:21:22.192Z,13.50
2023-04-11T02:23:49.907Z,15.90
2023-04-11T02:26:17.548Z,15.43
2023-04-11T02:28:45.185Z,14.47
2023-04-11T02:31:12.814Z,15.93
2023-04-11T02:33:41.784Z,15.23
2023-04-11T02:36:09.938Z,15.70
2023-04-11T02:38:37.569Z,15.47
2023-04-11T02:41:06.031Z,16.53
2023-04-11T02:43:33.750Z,15.30
2023-04-11T02:46:11.570Z,17.30
2023-04-11T02:48:41.389Z,15.93
2023-04-11T02:51:09.112Z,15.00
2023-04-11T02:53:36.922Z,17.73
2023-04-11T02:56:05.307Z,17.30
2023-04-11T02:58:33.221Z,17.60
2023-04-11T03:01:00.836Z,17.40
2023-04-11T03:03:28.541Z,17.47
2023-04-11T03:05:58.314Z,19.10
2023-04-11T03:08:26.009Z,16.43
2023-04-11T03:10:53.638Z,17.70
2023-04-11T03:13:21.498Z,17.40
2023-04-11T03:15:49.396Z,18.10
2023-04-11T03:18:18.048Z,15.77
2023-04-11T03:20:45.682Z,14.83
2023-04-11T03:23:14.779Z,14.73
2023-04-11T03:25:44.619Z,15.67
2023-04-11T03:28:12.609Z,15.70
2023-04-11T03:30:42.494Z,13.80
2023-04-11T03:33:10.523Z,12.57
2023-04-11T03:35:38.906Z,14.53
2023-04-11T03:38:06.639Z,13.23
2023-04-11T03:40:35.940Z,12.00
2023-04-11T03:43:04.807Z,13.50
2023-04-11T03:45:32.638Z,14.37
2023-04-11T03:48:00.617Z,14.37
2023-04-11T03:50:28.934Z,15.00
2023-04-11T03:52:56.852Z,11.87
2023-04-11T03:55:25.960Z,13.23
2023-04-11T03:57:55.069Z,11.27
2023-04-11T04:00:22.717Z,12.23
2023-04-11T04:02:50.531Z,10.40
2023-04-11T04:05:18.330Z,10.40
2023-04-11T04:07:46.065Z,11.13
2023-04-11T04:10:13.682Z,10.37
2023-04-11T04:12:41.312Z,11.97
2023-04-11T04:15:14.558Z,10.70
2023-04-11T04:17:42.328Z,10.30
2023-04-11T04:20:11.182Z,11.90
2023-04-11T04:22:38.920Z,10.70
2023-04-11T04:25:09.522Z,12.83
2023-04-11T04:27:37.346Z,10.10
2023-04-11T04:30:05.672Z,11.03
2023-04-11T04:32:34.718Z,10.67
2023-04-11T04:35:02.324Z,10.20
2023-04-11T04:37:30.063Z,9.67
2023-04-11T04:40:07.690Z,10.67
2023-04-11T04:42:36.488Z,9.67
2023-04-11T04:45:04.452Z,10.80
2023-04-11T04:47:36.543Z,10.07
2023-04-11T04:50:04.720Z,10.30
2023-04-11T04:52:32.400Z,10.20
2023-04-11T04:55:00.998Z,10.67
2023-04-11T04:57:31.843Z,10.83
2023-04-11T04:59:59.789Z,10.63
2023-04-11T05:02:27.811Z,11.17
2023-04-11T05:04:56.990Z,12.07
2023-04-11T05:07:24.569Z,10.50
2023-04-11T05:09:52.139Z,10.70
2023-04-11T05:12:21.740Z,11.37
2023-04-11T05:14:49.360Z,10.27
2023-04-11T05:17:17.069Z,10.63
2023-04-11T05:19:44.640Z,10.97
2023-04-11T05:22:13.770Z,10.73
2023-04-11T05:24:41.352Z,10.30
2023-04-11T05:27:08.967Z,10.07
2023-04-11T05:29:36.597Z,10.37
2023-04-11T05:32:04.277Z,10.37
2023-04-11T05:34:33.060Z,11.17
2023-04-11T05:37:01.280Z,17.33
2023-04-11T05:39:30.393Z,9.30
2023-04-11T05:41:57.998Z,11.40
2023-04-11T05:44:25.638Z,10.57
2023-04-11T05:46:53.303Z,11.53
2023-04-11T05:49:21.323Z,10.90
2023-04-11T05:51:48.920Z,11.40
2023-04-11T05:54:34.168Z,12.87
2023-04-11T05:57:03.186Z,10.90
2023-04-11T05:59:31.726Z,11.30
2023-04-11T06:01:59.452Z,11.00
2023-04-11T06:04:27.474Z,11.50
2023-04-11T06:06:57.583Z,13.93
2023-04-11T06:09:25.312Z,12.00
2023-04-11T06:11:54.286Z,12.03
2023-04-11T06:14:21.892Z,11.80
2023-04-11T06:16:49.676Z,11.03
2023-04-11T06:19:18.406Z,14.10
2023-04-11T06:21:46.134Z,12.33
2023-04-11T06:24:13.727Z,11.67
2023-04-11T06:26:41.319Z,18.60
2023-04-11T06:29:10.496Z,25.23
2023-04-11T06:31:38.170Z,12.80
2023-04-11T06:34:06.220Z,14.50
2023-04-11T06:36:34.057Z,14.87
2023-04-11T06:39:01.667Z,11.93
2023-04-11T06:41:29.268Z,13.80
2023-04-11T06:43:57.085Z,15.07
2023-04-11T06:46:26.226Z,14.77
2023-04-11T06:48:53.844Z,14.13
2023-04-11T06:51:21.466Z,14.70
2023-04-11T06:53:49.094Z,16.67
2023-04-11T06:56:16.663Z,21.67
2023-04-11T06:58:44.215Z,14.67
2023-04-11T07:01:12.249Z,20.43
2023-04-11T07:03:41.756Z,19.53
2023-04-11T07:06:10.311Z,14.77
2023-04-11T07:08:38.518Z,19.57
2023-04-11T07:11:06.588Z,17.73
2023-04-11T07:13:34.374Z,14.53
2023-04-11T07:16:02.068Z,15.47
2023-04-11T07:18:29.738Z,16.10
2023-04-11T07:20:58.838Z,16.53
2023-04-11T07:23:26.995Z,12.67
2023-04-11T07:25:55.598Z,17.93
2023-04-11T07:28:23.661Z,13.33
2023-04-11T07:30:52.072Z,15.17
2023-04-11T07:33:19.644Z,14.50
2023-04-11T07:35:47.292Z,13.87
2023-04-11T07:38:29.578Z,14.87
2023-04-11T07:40:58.178Z,16.53
2023-04-11T07:43:26.711Z,15.13
2023-04-11T07:45:55.249Z,18.70
2023-04-11T07:48:23.255Z,14.57
2023-04-11T07:50:50.887Z,18.80
2023-04-11T07:53:19.826Z,17.20
2023-04-11T07:55:47.469Z,15.40
2023-04-11T07:58:15.335Z,18.03
2023-04-11T08:00:43.034Z,15.63
2023-04-11T08:03:13.257Z,16.20
2023-04-11T08:05:41.253Z,19.83
2023-04-11T08:08:08.968Z,16.20
2023-04-11T08:10:38.143Z,16.17
2023-04-11T08:13:05.987Z,17.77
2023-04-11T08:15:34.850Z,14.63
2023-04-11T08:18:02.573Z,14.67
2023-04-11T08:20:30.420Z,16.03
2023-04-11T08:22:58.643Z,14.73
2023-04-11T08:25:26.437Z,20.23
2023-04-11T08:27:55.405Z,14.90
2023-04-11T08:30:23.346Z,14.60
2023-04-11T08:32:51.239Z,14.13
2023-04-11T08:35:18.978Z,14.63
2023-04-11T08:37:46.628Z,15.07
2023-04-11T08:40:14.377Z,14.73
2023-04-11T08:42:42.034Z,14.80
2023-04-11T08:45:12.238Z,14.40
2023-04-11T08:47:39.986Z,14.23
2023-04-11T08:50:09.515Z,15.17
2023-04-11T08:52:39.536Z,14.23
2023-04-11T08:55:07.756Z,13.33
2023-04-11T08:57:38.212Z,15.03
2023-04-11T09:00:14.423Z,13.57
2023-04-11T09:03:00.640Z,13.53
2023-04-11T09:05:31.027Z,12.40
2023-04-11T09:07:59.042Z,12.00
2023-04-11T09:10:27.668Z,13.50
2023-04-11T09:12:56.206Z,15.80
2023-04-11T09:15:25.677Z,15.13
2023-04-11T09:17:53.554Z,16.03
2023-04-11T09:20:26.104Z,15.83
2023-04-11T09:22:54.873Z,16.07
2023-04-11T09:25:24.079Z,19.70
2023-04-11T09:28:07.562Z,18.03
2023-04-11T09:30:35.703Z,15.50
2023-04-11T09:33:20.022Z,16.17
2023-04-11T09:35:50.129Z,13.30
2023-04-11T09:38:29.197Z,12.97
2023-04-11T09:40:57.658Z,12.00
2023-04-11T09:43:25.846Z,13.87
2023-04-11T09:46:09.518Z,14.27
2023-04-11T09:48:46.640Z,13.53
2023-04-11T09:51:34.251Z,12.63
2023-04-11T09:54:04.510Z,13.17
2023-04-11T09:56:34.165Z,12.93
2023-04-11T09:59:03.928Z,14.70
2023-04-11T10:01:31.704Z,13.17
2023-04-11T10:04:01.362Z,11.50
2023-04-11T10:06:34.113Z,11.43
2023-04-11T10:09:09.684Z,11.50
2023-04-11T10:11:37.829Z,12.37
2023-04-11T10:14:05.730Z,11.67
2023-04-11T10:16:34.389Z,12.57
2023-04-11T10:19:24.884Z,11.43
2023-04-11T10:21:53.916Z,12.63
2023-04-11T10:24:22.159Z,12.20
2023-04-11T10:26:51.981Z,11.53
2023-04-11T10:29:49.938Z,11.47
2023-04-11T10:32:21.406Z,11.97
2023-04-11T10:35:31.943Z,12.93
2023-04-11T10:38:01.203Z,17.73
2023-04-11T10:40:28.800Z,14.63
2023-04-11T10:42:57.420Z,14.50
2023-04-11T10:45:26.545Z,15.40
2023-04-11T10:48:12.833Z,13.83
2023-04-11T10:50:43.111Z,15.83
2023-04-11T10:53:38.402Z,14.37
2023-04-11T10:56:06.668Z,14.10
2023-04-11T10:58:39.927Z,21.77
2023-04-11T11:01:31.444Z,13.83
2023-04-11T11:04:05.767Z,14.50
2023-04-11T11:06:46.237Z,20.43
2023-04-11T11:09:23.940Z,19.43
2023-04-11T11:12:06.814Z,14.83
2023-04-11T11:14:34.514Z,14.10
2023-04-11T11:17:03.022Z,14.07
2023-04-11T11:19:31.449Z,19.43
2023-04-11T11:22:03.414Z,14.67
2023-04-11T11:24:33.044Z,15.00
2023-04-11T11:27:00.738Z,14.30
2023-04-11T11:29:32.858Z,19.70
2023-04-11T11:32:03.398Z,14.63
2023-04-11T11:34:32.802Z,14.77
2023-04-11T11:37:04.294Z,15.63
2023-04-11T11:39:35.404Z,14.53
2023-04-11T11:42:03.415Z,14.47
2023-04-11T11:44:32.513Z,15.03
2023-04-11T11:47:04.520Z,14.03
2023-04-11T11:49:45.716Z,14.10
2023-04-11T11:52:13.716Z,14.30
2023-04-11T11:54:47.008Z,13.80
2023-04-11T11:57:22.590Z,13.27
2023-04-11T11:59:54.237Z,14.10
2023-04-11T12:02:23.783Z,14.93
2023-04-11T12:04:51.873Z,14.20
2023-04-11T12:07:22.642Z,12.30
2023-04-11T12:09:57.057Z,16.17
2023-04-11T12:12:24.627Z,13.63
2023-04-11T12:14:55.531Z,12.37
2023-04-11T12:17:23.125Z,14.23
2023-04-11T12:19:50.730Z,14.30
2023-04-11T12:22:18.361Z,13.67
2023-04-11T12:24:46.139Z,15.87
2023-04-11T12:27:15.062Z,18.77
2023-04-11T12:29:42.663Z,18.27
2023-04-11T12:32:10.222Z,13.20
2023-04-11T12:34:37.775Z,11.47
2023-04-11T12:37:05.383Z,11.80
2023-04-11T12:39:32.946Z,12.47
2023-04-11T12:42:00.601Z,10.90
2023-04-11T12:44:29.579Z,11.47
2023-04-11T12:46:57.217Z,10.70
2023-04-11T12:49:24.953Z,13.37
2023-04-11T12:51:52.634Z,11.47
2023-04-11T12:54:20.727Z,13.83
2023-04-11T12:56:48.345Z,11.20
2023-04-11T12:59:16.699Z,11.27
2023-04-11T13:01:46.728Z,12.00
2023-04-11T13:04:14.586Z,11.70
2023-04-11T13:06:43.104Z,10.13
2023-04-11T13:09:12.459Z,11.67
2023-04-11T13:11:40.023Z,11.30
2023-04-11T13:14:07.708Z,12.37
2023-04-11T13:16:35.316Z,11.33
2023-04-11T13:19:04.442Z,11.87
2023-04-11T13:21:32.490Z,11.77
2023-04-11T13:24:00.493Z,11.50
2023-04-11T13:26:28.670Z,11.47
2023-04-11T13:28:56.659Z,18.03
2023-04-11T13:31:26.567Z,12.70
2023-04-11T13:33:54.292Z,15.10
2023-04-11T13:36:23.468Z,15.53
2023-04-11T13:38:52.356Z,13.73
2023-04-11T13:41:20.404Z,14.30
2023-04-11T13:43:49.148Z,16.33
2023-04-11T13:46:17.321Z,13.33
2023-04-11T13:48:45.495Z,12.00
2023-04-11T13:51:13.142Z,12.93
2023-04-11T13:53:42.076Z,10.20
2023-04-11T13:56:10.625Z,15.20
2023-04-11T13:58:39.073Z,14.37
2023-04-11T14:01:07.234Z,9.47
2023-04-11T14:03:34.997Z,10.43
2023-04-11T14:06:03.366Z,9.17
2023-04-11T14:08:31.019Z,8.03
2023-04-11T14:10:59.950Z,7.30
2023-04-11T14:13:27.668Z,9.50
2023-04-11T14:18:29.192Z,7.90
2023-04-11T14:20:58.364Z,7.57
2023-04-11T14:23:26.609Z,8.23
2023-04-11T14:25:54.266Z,8.33
2023-04-11T14:28:26.527Z,10.47
2023-04-11T14:30:54.923Z,8.50
2023-04-11T14:33:22.967Z,8.90
2023-04-11T14:35:51.360Z,8.20
2023-04-11T14:38:19.170Z,9.20
2023-04-11T14:40:46.928Z,9.33
2023-04-11T14:43:14.694Z,7.87
2023-04-11T14:45:43.761Z,8.17
2023-04-11T14:48:11.673Z,8.57
2023-04-11T14:50:39.360Z,8.23
2023-04-11T14:53:06.940Z,9.03
2023-04-11T14:55:34.512Z,8.13
2023-04-11T14:58:02.135Z,7.10
2023-04-11T15:00:29.789Z,6.63
2023-04-11T15:02:58.812Z,7.07
2023-04-11T15:05:26.835Z,6.50
2023-04-11T15:07:54.674Z,6.57
2023-04-11T15:10:23.796Z,7.90
2023-04-11T15:12:51.579Z,7.63
2023-04-11T15:15:19.332Z,9.10
2023-04-11T15:17:48.542Z,8.13
2023-04-11T15:20:19.613Z,8.07
2023-04-11T15:22:47.241Z,8.17
2023-04-11T15:25:16.525Z,7.37
2023-04-11T15:27:44.405Z,8.57
2023-04-11T15:30:12.660Z,9.23
2023-04-11T15:32:44.106Z,7.63
2023-04-11T15:35:12.274Z,9.67
2023-04-11T15:37:42.695Z,9.40
2023-04-11T15:40:12.278Z,7.80
2023-04-11T15:42:40.199Z,7.40
2023-04-11T15:45:08.921Z,7.87
2023-04-11T15:47:36.576Z,14.10
2023-04-11T15:50:04.701Z,8.00
2023-04-11T15:52:32.455Z,7.47
2023-04-11T15:55:01.453Z,14.23
2023-04-11T15:57:29.121Z,8.60
2023-04-11T15:59:57.052Z,8.27
2023-04-11T16:02:24.846Z,11.80
2023-04-11T16:04:54.219Z,8.60
2023-04-11T16:07:23.046Z,9.43
2023-04-11T16:09:50.868Z,10.20
2023-04-11T16:12:20.207Z,12.20
2023-04-11T16:14:48.033Z,8.47
2023-04-11T16:17:18.236Z,9.53
2023-04-11T16:19:46.049Z,8.13
2023-04-11T16:22:13.835Z,7.97
2023-04-11T16:24:41.441Z,14.50
2023-04-11T16:27:09.044Z,7.00
2023-04-11T16:29:38.136Z,11.80
2023-04-11T16:32:06.233Z,11.00
2023-04-11T16:34:33.971Z,13.00
2023-04-11T16:37:02.345Z,12.10
2023-04-11T16:39:29.955Z,16.30
2023-04-11T16:41:57.680Z,10.97
2023-04-11T16:44:25.265Z,8.73
2023-04-11T16:46:54.654Z,10.70
2023-04-11T16:49:22.270Z,7.87
2023-04-11T16:51:49.881Z,7.53
2023-04-11T16:54:17.547Z,6.90
2023-04-11T16:56:47.231Z,8.83
2023-04-11T16:59:15.967Z,7.93
2023-04-11T17:01:44.895Z,6.90
2023-04-11T17:04:14.122Z,7.60
2023-04-11T17:06:41.947Z,7.33
2023-04-11T17:09:10.495Z,6.03
2023-04-11T17:11:39.503Z,7.60
2023-04-11T17:14:07.976Z,6.40
2023-04-11T17:16:35.618Z,6.30
2023-04-11T17:19:04.950Z,6.67
2023-04-11T17:21:34.065Z,6.83
2023-04-11T17:24:01.812Z,9.73
2023-04-11T17:26:29.593Z,9.43
2023-04-11T17:28:57.369Z,8.13
2023-04-11T17:31:27.582Z,7.43
2023-04-11T17:33:55.567Z,9.40
2023-04-11T17:36:24.261Z,10.93
2023-04-11T17:38:54.655Z,9.07
2023-04-11T17:41:22.828Z,7.63
2023-04-11T17:43:50.623Z,10.30
2023-04-11T17:46:18.263Z,16.00
2023-04-11T17:48:46.240Z,16.23
2023-04-11T17:51:13.928Z,12.13
2023-04-11T17:53:41.748Z,14.60
2023-04-11T17:56:11.554Z,13.70
2023-04-11T17:58:42.517Z,16.27
2023-04-11T18:01:11.004Z,12.90
2023-04-11T18:03:39.737Z,9.77
2023-04-11T18:06:08.388Z,12.23
2023-04-11T18:08:49.776Z,9.70
2023-04-11T18:11:20.795Z,12.20
2023-04-11T18:13:50.293Z,17.03
2023-04-11T18:16:18.593Z,17.93
2023-04-11T18:18:46.956Z,14.30
2023-04-11T18:21:14.634Z,16.53
2023-04-11T18:23:42.233Z,10.77
2023-04-11T18:26:09.873Z,12.53
2023-04-11T18:28:38.891Z,10.87
2023-04-11T18:31:06.842Z,22.30
2023-04-11T18:33:35.644Z,19.40
2023-04-11T18:36:03.684Z,18.43
2023-04-11T18:38:31.611Z,15.37
2023-04-11T18:41:02.230Z,9.20
2023-04-11T18:43:32.976Z,7.40
2023-04-11T18:46:04.043Z,7.50
2023-04-11T18:48:31.897Z,7.37
2023-04-11T18:51:00.593Z,10.93
2023-04-11T18:53:29.863Z,13.50
2023-04-11T18:55:57.930Z,7.73
2023-04-11T18:58:26.400Z,11.90
2023-04-11T19:00:55.005Z,10.13
2023-04-11T19:03:24.323Z,8.27
2023-04-11T19:05:52.967Z,6.93
2023-04-11T19:08:20.957Z,6.77
2023-04-11T19:10:48.674Z,10.10
2023-04-11T19:13:16.322Z,8.87
2023-04-11T19:15:44.013Z,9.53
2023-04-11T19:18:11.816Z,11.40
2023-04-11T19:20:40.915Z,11.77
2023-04-11T19:23:08.579Z,7.50
2023-04-11T19:25:36.228Z,8.33
2023-04-11T19:28:04.048Z,11.13
2023-04-11T19:30:34.918Z,9.27
2023-04-11T19:33:03.114Z,8.67
2023-04-11T19:35:30.819Z,9.77
2023-04-11T19:38:02.610Z,9.30
2023-04-11T19:40:30.339Z,10.00
2023-04-11T19:42:58.047Z,9.20
2023-04-11T19:45:25.864Z,8.97
2023-04-11T19:47:53.522Z,10.43
2023-04-11T19:50:22.755Z,9.00
2023-04-11T19:52:50.816Z,11.90
2023-04-11T19:55:19.873Z,8.80
2023-04-11T19:57:47.581Z,11.63
2023-04-11T20:00:17.058Z,13.10
2023-04-11T20:02:46.785Z,10.73
2023-04-11T20:05:15.224Z,10.33
2023-04-11T20:07:43.943Z,13.67
2023-04-11T20:10:12.268Z,11.83
2023-04-11T20:12:41.789Z,9.07
2023-04-11T20:15:10.612Z,10.10
2023-04-11T20:17:38.320Z,9.83
2023-04-11T20:20:08.682Z,15.60
2023-04-11T20:22:38.311Z,14.03
2023-04-11T20:25:08.180Z,11.23
2023-04-11T20:27:36.281Z,11.20
2023-04-11T20:30:09.125Z,10.80
2023-04-11T20:32:36.933Z,24.57
2023-04-11T20:35:05.084Z,10.67
2023-04-11T20:37:34.453Z,17.20
2023-04-11T20:40:02.513Z,14.30
2023-04-11T20:42:31.615Z,16.73
2023-04-11T20:45:05.972Z,20.70
2023-04-11T20:47:37.380Z,12.63
2023-04-11T20:50:05.641Z,10.23
2023-04-11T20:52:33.378Z,14.07
2023-04-11T20:55:01.182Z,17.77
2023-04-11T20:57:31.085Z,16.30
2023-04-11T20:59:59.326Z,22.60
2023-04-11T21:02:29.292Z,12.00
2023-04-11T21:04:57.008Z,19.97
2023-04-11T21:07:24.608Z,12.83
2023-04-11T21:09:52.625Z,15.67
2023-04-11T21:12:20.217Z,15.90
2023-04-11T21:14:47.852Z,22.27
2023-04-11T21:17:15.502Z,14.90
2023-04-11T21:19:44.450Z,24.47
2023-04-11T21:22:13.012Z,21.43
2023-04-11T21:24:41.172Z,16.70
2023-04-11T21:27:08.817Z,16.43
2023-04-11T21:29:36.411Z,13.70
2023-04-11T21:32:04.008Z,12.17
2023-04-11T21:34:31.637Z,14.80
2023-04-11T21:37:00.740Z,12.03
2023-04-11T21:39:28.363Z,14.90
2023-04-11T21:41:56.560Z,11.03
2023-04-11T21:44:24.233Z,15.27
2023-04-11T21:46:51.859Z,21.67
2023-04-11T21:49:19.682Z,11.53
2023-04-11T21:51:47.313Z,18.37
2023-04-11T21:54:16.416Z,17.47
2023-04-11T21:56:44.884Z,19.50
2023-04-11T21:59:12.587Z,17.03
2023-04-11T22:01:41.579Z,15.30
2023-04-11T22:04:10.515Z,16.43
2023-04-11T22:06:38.770Z,18.97
2023-04-11T22:09:06.422Z,13.60
2023-04-11T22:11:35.362Z,16.37
2023-04-11T22:14:03.327Z,22.30
2023-04-11T22:16:31.887Z,19.80
2023-04-11T22:19:00.724Z,12.77
2023-04-11T22:21:32.893Z,12.50
2023-04-11T22:24:02.141Z,14.87
2023-04-11T22:26:34.098Z,16.80
2023-04-11T22:29:05.088Z,12.90
2023-04-11T22:31:34.335Z,15.10
2023-04-11T22:34:02.162Z,15.03
2023-04-11T22:36:35.515Z,17.27
2023-04-11T22:39:04.123Z,15.90
2023-04-11T22:41:33.025Z,12.63
2023-04-11T22:44:01.493Z,21.20
2023-04-11T22:46:32.364Z,17.50
2023-04-11T22:49:00.004Z,23.10
2023-04-11T22:51:30.039Z,20.77
2023-04-11T22:53:58.182Z,18.93
2023-04-11T22:56:26.329Z,22.60
2023-04-11T22:58:54.118Z,22.90
2023-04-11T23:01:22.308Z,15.00
2023-04-11T23:03:51.821Z,18.30
2023-04-11T23:06:19.510Z,14.90
2023-04-11T23:08:47.419Z,14.53
2023-04-11T23:11:15.100Z,20.60
2023-04-11T23:13:43.114Z,16.47
2023-04-11T23:16:10.820Z,16.93
2023-04-11T23:18:38.771Z,18.80
2023-04-11T23:21:13.088Z,24.60
2023-04-11T23:23:41.482Z,20.43
2023-04-11T23:26:09.227Z,21.47
2023-04-11T23:28:36.821Z,19.77
2023-04-11T23:31:04.727Z,15.27
2023-04-11T23:33:32.479Z,15.10
2023-04-11T23:36:00.110Z,20.00
2023-04-11T23:38:29.769Z,25.83
2023-04-11T23:40:57.594Z,25.80
2023-04-11T23:43:25.452Z,30.60
2023-04-11T23:45:54.898Z,35.40
2023-04-11T23:48:22.642Z,29.43
2023-04-11T23:50:51.109Z,33.60
2023-04-11T23:53:18.739Z,27.93
2023-04-11T23:55:48.007Z,16.23
2023-04-11T23:58:15.788Z,25.40
